createdAt,value
2017-12-06T00:01:01.142Z,98687.87
2017-12-06T00:03:28.766Z,98688.65
2017-12-06T00:05:56.357Z,98686.95
2017-12-06T00:08:23.963Z,98691.69
2017-12-06T00:10:51.527Z,98683.20
2017-12-06T00:13:24.610Z,98683.10
2017-12-06T00:15:52.189Z,98686.36
2017-12-06T00:18:19.794Z,98684.26
2017-12-06T00:20:47.403Z,98675.77
2017-12-06T00:23:15.055Z,98674.82
2017-12-06T00:25:42.658Z,98678.11
2017-12-06T00:28:10.297Z,98677.23
2017-12-06T00:30:37.922Z,98678.48
2017-12-06T00:33:05.553Z,98679.30
2017-12-06T00:35:33.161Z,98685.10
2017-12-06T00:38:00.738Z,98691.30
2017-12-06T00:40:28.323Z,98682.84
2017-12-06T00:42:55.909Z,98687.70
2017-12-06T00:45:23.758Z,98688.95
2017-12-06T00:47:51.327Z,98688.08
2017-12-06T00:50:18.943Z,98685.13
2017-12-06T00:52:46.608Z,98690.39
2017-12-06T00:55:14.191Z,98685.28
2017-12-06T00:57:41.820Z,98694.90
2017-12-06T01:00:09.407Z,98689.44
2017-12-06T01:02:36.981Z,98690.56
2017-12-06T01:05:04.614Z,98683.42
2017-12-06T01:07:32.196Z,98691.38
2017-12-06T01:09:59.828Z,98682.61
2017-12-06T01:12:27.435Z,98680.55
2017-12-06T01:14:55.060Z,98690.06
2017-12-06T01:17:22.629Z,98678.34
2017-12-06T01:19:50.302Z,98689.09
2017-12-06T01:22:17.880Z,98686.48
2017-12-06T01:24:45.452Z,98683.98
2017-12-06T01:27:13.042Z,98681.91
2017-12-06T01:29:40.677Z,98683.13
2017-12-06T01:32:08.268Z,98688.46
2017-12-06T01:34:35.892Z,98685.41
2017-12-06T01:37:03.478Z,98685.86
2017-12-06T01:39:31.086Z,98684.88
2017-12-06T01:41:58.658Z,98678.78
2017-12-06T01:44:26.248Z,98683.16
2017-12-06T01:46:53.830Z,98678.36
2017-12-06T01:49:21.451Z,98676.73
2017-12-06T01:51:49.042Z,98677.07
2017-12-06T01:54:16.634Z,98672.80
2017-12-06T01:56:44.246Z,98672.50
2017-12-06T01:59:11.909Z,98671.52
2017-12-06T02:01:39.577Z,98670.37
2017-12-06T02:04:07.224Z,98670.80
2017-12-06T02:06:34.843Z,98668.23
2017-12-06T02:09:02.494Z,98668.58
2017-12-06T02:11:30.102Z,98666.41
2017-12-06T02:13:57.676Z,98667.32
2017-12-06T02:16:25.315Z,98656.39
2017-12-06T02:18:52.904Z,98663.47
2017-12-06T02:21:20.528Z,98667.50
2017-12-06T02:23:48.123Z,98654.16
2017-12-06T02:26:15.714Z,98654.78
2017-12-06T02:28:43.324Z,98655.31
2017-12-06T02:31:11.070Z,98655.62
2017-12-06T02:33:38.669Z,98653.91
2017-12-06T02:36:06.263Z,98650.52
2017-12-06T02:38:33.828Z,98650.17
2017-12-06T02:41:13.350Z,98654.78
2017-12-06T02:43:52.606Z,98652.48
2017-12-06T02:46:20.216Z,98647.28
2017-12-06T02:48:47.878Z,98646.75
2017-12-06T02:51:15.536Z,98647.50
2017-12-06T02:53:43.176Z,98644.24
2017-12-06T02:56:10.789Z,98644.78
2017-12-06T02:58:38.393Z,98642.74
2017-12-06T03:01:06.009Z,98646.94
2017-12-06T03:03:33.590Z,98639.08
2017-12-06T03:06:01.240Z,98640.39
2017-12-06T03:08:28.802Z,98646.22
2017-12-06T03:10:56.382Z,98645.75
2017-12-06T03:13:24.034Z,98637.26
2017-12-06T03:15:51.642Z,98630.59
2017-12-06T03:18:19.242Z,98635.03
2017-12-06T03:20:46.818Z,98629.11
2017-12-06T03:23:14.400Z,98639.00
2017-12-06T03:25:41.964Z,98633.95
2017-12-06T03:28:09.544Z,98630.10
2017-12-06T03:30:37.111Z,98626.63
2017-12-06T03:33:04.680Z,98626.53
2017-12-06T03:35:32.256Z,98623.14
2017-12-06T03:37:59.907Z,98624.86
2017-12-06T03:40:27.464Z,98620.20
2017-12-06T03:42:55.040Z,98613.13
2017-12-06T03:45:22.620Z,98632.72
2017-12-06T03:47:50.215Z,98620.70
2017-12-06T03:50:17.792Z,98616.94
2017-12-06T03:52:45.384Z,98610.71
2017-12-06T03:55:12.984Z,98612.78
2017-12-06T03:57:40.612Z,98610.24
2017-12-06T04:00:08.211Z,98610.27
2017-12-06T04:02:36.026Z,98609.83
2017-12-06T04:05:03.624Z,98614.44
2017-12-06T04:07:31.196Z,98616.94
2017-12-06T04:09:58.927Z,98618.57
2017-12-06T04:12:26.544Z,98617.35
2017-12-06T04:14:54.148Z,98608.98
2017-12-06T04:17:21.724Z,98611.94
2017-12-06T04:19:49.307Z,98615.56
2017-12-06T04:22:16.930Z,98609.73
2017-12-06T04:24:44.523Z,98606.86
2017-12-06T04:27:12.103Z,98609.70
2017-12-06T04:29:39.687Z,98608.11
2017-12-06T04:32:07.293Z,98603.75
2017-12-06T04:34:34.919Z,98608.67
2017-12-06T04:37:02.583Z,98608.23
2017-12-06T04:39:30.293Z,98616.97
2017-12-06T04:41:58.062Z,98618.93
2017-12-06T04:44:25.673Z,98610.88
2017-12-06T04:46:53.302Z,98619.05
2017-12-06T04:49:20.941Z,98610.72
2017-12-06T04:51:48.612Z,98614.82
2017-12-06T04:54:16.230Z,98613.50
2017-12-06T04:56:43.845Z,98616.44
2017-12-06T04:59:11.559Z,98617.80
2017-12-06T05:01:39.175Z,98622.33
2017-12-06T05:04:06.759Z,98616.88
2017-12-06T05:06:34.360Z,98615.19
2017-12-06T05:09:01.952Z,98620.92
2017-12-06T05:11:29.550Z,98626.02
2017-12-06T05:13:57.138Z,98627.24
2017-12-06T05:16:24.734Z,98630.13
2017-12-06T05:18:52.310Z,98632.13
2017-12-06T05:21:19.975Z,98632.13
2017-12-06T05:23:47.571Z,98634.22
2017-12-06T05:26:15.219Z,98629.52
2017-12-06T05:28:42.831Z,98627.80
2017-12-06T05:31:10.420Z,98618.97
2017-12-06T05:33:38.008Z,98624.76
2017-12-06T05:36:05.621Z,98622.56
2017-12-06T05:38:33.260Z,98617.80
2017-12-06T05:41:00.895Z,98621.80
2017-12-06T05:43:28.487Z,98617.59
2017-12-06T05:45:56.121Z,98626.09
2017-12-06T05:48:23.693Z,98628.53
2017-12-06T05:50:51.265Z,98627.27
2017-12-06T05:53:18.861Z,98621.53
2017-12-06T05:55:46.511Z,98617.71
2017-12-06T05:58:14.079Z,98606.09
2017-12-06T06:00:41.652Z,98613.92
2017-12-06T06:03:09.245Z,98617.43
2017-12-06T06:05:36.889Z,98615.53
2017-12-06T06:08:04.479Z,98615.00
2017-12-06T06:10:32.076Z,98616.63
2017-12-06T06:12:59.671Z,98621.63
2017-12-06T06:15:27.249Z,98619.56
2017-12-06T06:17:54.874Z,98623.05
2017-12-06T06:20:22.483Z,98621.29
2017-12-06T06:22:50.077Z,98619.56
2017-12-06T06:25:17.657Z,98621.63
2017-12-06T06:27:45.224Z,98626.91
2017-12-06T06:30:12.797Z,98624.47
2017-12-06T06:32:40.415Z,98618.42
2017-12-06T06:35:08.187Z,98617.41
2017-12-06T06:37:35.845Z,98612.61
2017-12-06T06:40:03.481Z,98609.64
2017-12-06T06:42:31.097Z,98608.14
2017-12-06T06:44:58.702Z,98600.97
2017-12-06T06:47:26.311Z,98609.02
2017-12-06T06:49:53.921Z,98598.14
2017-12-06T06:52:21.549Z,98608.52
2017-12-06T06:54:49.140Z,98610.92
2017-12-06T06:57:16.733Z,98618.06
2017-12-06T06:59:44.353Z,98623.27
2017-12-06T07:02:11.969Z,98630.34
2017-12-06T07:04:39.587Z,98629.94
2017-12-06T07:07:07.215Z,98637.91
2017-12-06T07:09:34.806Z,98633.19
2017-12-06T07:12:02.400Z,98645.23
2017-12-06T07:14:30.088Z,98647.83
2017-12-06T07:16:57.687Z,98647.87
2017-12-06T07:19:25.301Z,98645.91
2017-12-06T07:21:52.881Z,98647.56
2017-12-06T07:24:20.504Z,98651.85
2017-12-06T07:26:48.075Z,98648.73
2017-12-06T07:29:15.689Z,98652.02
2017-12-06T07:31:43.300Z,98651.68
2017-12-06T07:34:10.894Z,98640.95
2017-12-06T07:36:38.474Z,98650.72
2017-12-06T07:39:06.170Z,98647.31
2017-12-06T07:41:33.803Z,98642.84
2017-12-06T07:44:01.426Z,98642.47
2017-12-06T07:46:29.064Z,98637.92
2017-12-06T07:48:56.806Z,98641.75
2017-12-06T07:51:24.381Z,98644.35
2017-12-06T07:53:52.041Z,98643.64
2017-12-06T07:56:19.740Z,98639.61
2017-12-06T07:58:47.370Z,98640.95
2017-12-06T08:01:14.932Z,98639.64
2017-12-06T08:03:42.560Z,98642.81
2017-12-06T08:06:10.150Z,98640.89
2017-12-06T08:08:37.752Z,98641.66
2017-12-06T08:11:05.313Z,98638.38
2017-12-06T08:13:32.944Z,98639.81
2017-12-06T08:16:00.954Z,98641.23
2017-12-06T08:18:28.530Z,98637.98
2017-12-06T08:20:56.216Z,98641.49
2017-12-06T08:23:23.786Z,98639.27
2017-12-06T08:25:51.392Z,98636.92
2017-12-06T08:28:18.992Z,98634.52
2017-12-06T08:30:46.715Z,98633.05
2017-12-06T08:33:14.320Z,98628.14
2017-12-06T08:35:41.907Z,98635.84
2017-12-06T08:38:09.532Z,98636.82
2017-12-06T08:40:37.120Z,98636.20
2017-12-06T08:43:04.709Z,98635.48
2017-12-06T08:45:32.351Z,98635.27
2017-12-06T08:47:59.932Z,98632.80
2017-12-06T08:50:27.604Z,98626.19
2017-12-06T08:52:55.253Z,98631.33
2017-12-06T08:55:22.822Z,98631.45
2017-12-06T08:57:50.398Z,98632.80
2017-12-06T09:00:18.020Z,98631.70
2017-12-06T09:02:45.592Z,98627.60
2017-12-06T09:05:13.229Z,98629.80
2017-12-06T09:07:40.815Z,98626.73
2017-12-06T09:10:08.442Z,98630.69
2017-12-06T09:12:36.777Z,98626.64
2017-12-06T09:15:04.443Z,98623.16
2017-12-06T09:17:32.087Z,98629.62
2017-12-06T09:19:59.704Z,98625.64
2017-12-06T09:22:27.349Z,98627.96
2017-12-06T09:24:54.940Z,98624.92
2017-12-06T09:27:22.563Z,98627.23
2017-12-06T09:29:50.132Z,98627.61
2017-12-06T09:32:17.779Z,98625.98
2017-12-06T09:34:45.401Z,98624.55
2017-12-06T09:37:13.036Z,98627.83
2017-12-06T09:39:40.632Z,98619.24
2017-12-06T09:42:08.212Z,98622.72
2017-12-06T09:44:35.841Z,98627.89
2017-12-06T09:47:03.415Z,98625.54
2017-12-06T09:49:31.005Z,98623.97
2017-12-06T09:51:58.690Z,98619.45
2017-12-06T09:54:26.284Z,98623.09
2017-12-06T09:56:53.894Z,98621.52
2017-12-06T09:59:21.470Z,98622.67
2017-12-06T10:01:49.131Z,98621.58
2017-12-06T10:04:16.814Z,98619.66
2017-12-06T10:06:44.433Z,98615.74
2017-12-06T10:09:12.012Z,98618.00
2017-12-06T10:11:39.621Z,98610.34
2017-12-06T10:14:07.212Z,98611.31
2017-12-06T10:16:34.811Z,98608.83
2017-12-06T10:19:02.426Z,98608.10
2017-12-06T10:21:30.121Z,98608.55
2017-12-06T10:23:58.005Z,98612.11
2017-12-06T10:26:25.596Z,98615.59
2017-12-06T10:28:53.208Z,98609.51
2017-12-06T10:31:20.802Z,98602.07
2017-12-06T10:33:48.406Z,98606.34
2017-12-06T10:36:15.990Z,98600.71
2017-12-06T10:38:43.634Z,98598.79
2017-12-06T10:41:11.211Z,98597.97
2017-12-06T10:43:38.821Z,98597.28
2017-12-06T10:46:06.412Z,98591.50
2017-12-06T10:48:34.025Z,98586.11
2017-12-06T10:51:01.607Z,98585.47
2017-12-06T10:53:29.232Z,98580.06
2017-12-06T10:55:56.816Z,98584.56
2017-12-06T10:58:24.460Z,98575.69
2017-12-06T11:00:52.102Z,98571.11
2017-12-06T11:03:19.716Z,98565.36
2017-12-06T11:05:47.311Z,98564.28
2017-12-06T11:08:14.931Z,98560.58
2017-12-06T11:10:42.508Z,98554.86
2017-12-06T11:13:10.596Z,98557.19
2017-12-06T11:15:38.225Z,98550.86
2017-12-06T11:18:05.766Z,98550.92
2017-12-06T11:20:33.348Z,98549.69
2017-12-06T11:23:00.909Z,98546.75
2017-12-06T11:25:28.491Z,98545.69
2017-12-06T11:27:56.161Z,98551.77
2017-12-06T11:30:23.765Z,98552.06
2017-12-06T11:32:51.373Z,98557.90
2017-12-06T11:35:19.022Z,98551.33
2017-12-06T11:37:46.632Z,98553.55
2017-12-06T11:40:14.291Z,98552.84
2017-12-06T11:42:41.885Z,98554.92
2017-12-06T11:45:09.557Z,98554.55
2017-12-06T11:47:37.128Z,98550.95
2017-12-06T11:50:04.705Z,98554.34
2017-12-06T11:52:32.261Z,98553.52
2017-12-06T11:54:59.920Z,98547.53
2017-12-06T11:57:27.508Z,98551.01
2017-12-06T11:59:55.104Z,98545.72
2017-12-06T12:02:22.728Z,98546.25
2017-12-06T12:04:50.359Z,98550.10
2017-12-06T12:07:18.269Z,98539.06
2017-12-06T12:09:45.931Z,98534.08
2017-12-06T12:12:13.659Z,98538.28
2017-12-06T12:14:41.268Z,98532.82
2017-12-06T12:17:08.851Z,98531.36
2017-12-06T12:19:36.557Z,98523.94
2017-12-06T12:22:04.138Z,98525.11
2017-12-06T12:24:31.733Z,98527.30
2017-12-06T12:26:59.378Z,98518.89
2017-12-06T12:29:27.094Z,98516.09
2017-12-06T12:31:54.681Z,98516.20
2017-12-06T12:34:22.275Z,98519.16
2017-12-06T12:36:49.873Z,98512.44
2017-12-06T12:39:17.450Z,98502.80
2017-12-06T12:41:45.105Z,98503.03
2017-12-06T12:44:12.705Z,98494.56
2017-12-06T12:46:40.293Z,98497.34
2017-12-06T12:49:07.869Z,98498.30
2017-12-06T12:51:35.469Z,98494.13
2017-12-06T12:54:03.062Z,98490.25
2017-12-06T12:56:30.727Z,98497.16
2017-12-06T12:58:58.326Z,98491.62
2017-12-06T13:01:25.972Z,98488.88
2017-12-06T13:03:53.529Z,98490.13
2017-12-06T13:06:21.116Z,98476.17
2017-12-06T13:08:48.683Z,98477.17
2017-12-06T13:11:16.314Z,98475.63
2017-12-06T13:13:43.877Z,98476.03
2017-12-06T13:16:11.633Z,98478.22
2017-12-06T13:18:39.343Z,98478.30
2017-12-06T13:21:06.918Z,98471.42
2017-12-06T13:23:34.561Z,98474.31
2017-12-06T13:26:02.129Z,98476.98
2017-12-06T13:28:29.725Z,98474.97
2017-12-06T13:30:57.287Z,98470.77
2017-12-06T13:33:24.862Z,98473.14
2017-12-06T13:35:52.422Z,98467.07
2017-12-06T13:38:19.999Z,98472.39
2017-12-06T13:40:47.615Z,98471.27
2017-12-06T13:43:15.246Z,98469.44
2017-12-06T13:45:42.810Z,98475.92
2017-12-06T13:48:10.397Z,98480.94
2017-12-06T13:50:37.967Z,98473.84
2017-12-06T13:53:05.564Z,98466.67
2017-12-06T13:55:33.164Z,98462.84
2017-12-06T13:58:00.810Z,98462.41
2017-12-06T14:00:28.423Z,98464.91
2017-12-06T14:02:56.347Z,98459.72
2017-12-06T14:05:24.035Z,98458.97
2017-12-06T14:07:51.626Z,98462.23
2017-12-06T14:10:19.242Z,98457.56
2017-12-06T14:12:46.857Z,98453.19
2017-12-06T14:15:14.400Z,98462.30
2017-12-06T14:17:42.051Z,98458.50
2017-12-06T14:20:10.080Z,98460.31
2017-12-06T14:22:37.645Z,98456.55
2017-12-06T14:25:05.261Z,98460.14
2017-12-06T14:27:32.856Z,98460.52
2017-12-06T14:30:00.461Z,98457.60
2017-12-06T14:32:28.119Z,98456.73
2017-12-06T14:34:55.701Z,98464.28
2017-12-06T14:37:23.285Z,98452.44
2017-12-06T14:39:50.888Z,98452.35
2017-12-06T14:42:18.447Z,98453.90
2017-12-06T14:44:46.030Z,98454.22
2017-12-06T14:47:13.618Z,98451.30
2017-12-06T14:49:41.272Z,98454.63
2017-12-06T14:52:08.955Z,98447.39
2017-12-06T14:54:36.564Z,98457.20
2017-12-06T14:57:04.136Z,98454.40
2017-12-06T14:59:31.732Z,98455.88
2017-12-06T15:01:59.312Z,98451.06
2017-12-06T15:04:26.891Z,98459.97
2017-12-06T15:06:54.471Z,98456.20
2017-12-06T15:09:22.050Z,98462.42
2017-12-06T15:11:49.630Z,98461.98
2017-12-06T15:14:17.245Z,98453.48
2017-12-06T15:16:44.982Z,98456.00
2017-12-06T15:19:13.033Z,98458.34
2017-12-06T15:21:40.667Z,98456.58
2017-12-06T15:24:08.226Z,98459.88
2017-12-06T15:26:35.828Z,98461.77
2017-12-06T15:29:03.408Z,98455.97
2017-12-06T15:31:31.026Z,98460.61
2017-12-06T15:33:58.620Z,98459.70
2017-12-06T15:36:26.238Z,98462.59
2017-12-06T15:38:53.838Z,98460.02
2017-12-06T15:41:21.630Z,98453.28
2017-12-06T15:43:49.218Z,98460.66
2017-12-06T15:46:16.845Z,98465.12
2017-12-06T15:48:44.422Z,98458.70
2017-12-06T15:51:12.049Z,98465.36
2017-12-06T15:53:39.667Z,98459.90
2017-12-06T15:56:07.412Z,98468.56
2017-12-06T15:58:34.969Z,98468.56
2017-12-06T16:01:02.569Z,98470.14
2017-12-06T16:03:30.181Z,98462.58
2017-12-06T16:05:57.780Z,98458.32
2017-12-06T16:08:25.411Z,98453.56
2017-12-06T16:10:53.016Z,98451.06
2017-12-06T16:13:20.608Z,98454.84
2017-12-06T16:15:48.275Z,98451.50
2017-12-06T16:18:15.888Z,98458.58
2017-12-06T16:20:43.522Z,98457.86
2017-12-06T16:23:11.104Z,98453.59
2017-12-06T16:25:38.723Z,98461.53
2017-12-06T16:28:06.303Z,98453.92
2017-12-06T16:30:33.884Z,98452.14
2017-12-06T16:33:01.518Z,98452.52
2017-12-06T16:35:40.802Z,98452.08
2017-12-06T16:38:08.723Z,98452.16
2017-12-06T16:40:36.351Z,98448.66
2017-12-06T16:43:04.009Z,98444.47
2017-12-06T16:45:31.662Z,98445.66
2017-12-06T16:47:59.331Z,98451.98
2017-12-06T16:50:26.965Z,98450.95
2017-12-06T16:52:54.602Z,98451.45
2017-12-06T16:55:22.180Z,98447.32
2017-12-06T16:57:49.825Z,98443.44
2017-12-06T17:00:17.405Z,98444.22
2017-12-06T17:02:45.040Z,98437.89
2017-12-06T17:05:12.631Z,98442.91
2017-12-06T17:07:40.393Z,98441.62
2017-12-06T17:10:07.984Z,98443.31
2017-12-06T17:12:35.643Z,98446.36
2017-12-06T17:15:03.217Z,98446.36
2017-12-06T17:17:30.925Z,98443.73
2017-12-06T17:19:58.571Z,98440.81
2017-12-06T17:22:26.164Z,98440.75
2017-12-06T17:24:53.778Z,98442.91
2017-12-06T17:27:21.369Z,98440.46
2017-12-06T17:30:00.670Z,98433.23
2017-12-06T17:32:28.271Z,98431.91
2017-12-06T17:34:55.920Z,98428.41
2017-12-06T17:37:23.554Z,98420.89
2017-12-06T17:39:51.132Z,98423.40
2017-12-06T17:42:18.756Z,98427.97
2017-12-06T17:44:46.363Z,98425.03
2017-12-06T17:47:13.957Z,98427.53
2017-12-06T17:49:41.600Z,98427.01
2017-12-06T17:52:09.163Z,98422.43
2017-12-06T17:54:36.804Z,98419.55
2017-12-06T17:57:04.423Z,98417.50
2017-12-06T17:59:32.026Z,98418.73
2017-12-06T18:01:59.612Z,98420.36
2017-12-06T18:04:27.286Z,98420.02
2017-12-06T18:06:54.870Z,98419.11
2017-12-06T18:09:22.507Z,98422.87
2017-12-06T18:11:50.446Z,98421.53
2017-12-06T18:14:18.085Z,98426.89
2017-12-06T18:16:45.696Z,98428.91
2017-12-06T18:19:13.318Z,98427.27
2017-12-06T18:21:40.936Z,98422.19
2017-12-06T18:24:08.740Z,98425.42
2017-12-06T18:26:36.334Z,98417.97
2017-12-06T18:29:03.938Z,98419.13
2017-12-06T18:31:31.635Z,98417.38
2017-12-06T18:33:59.250Z,98421.11
2017-12-06T18:36:26.984Z,98420.14
2017-12-06T18:38:54.595Z,98416.91
2017-12-06T18:41:22.339Z,98417.73
2017-12-06T18:43:49.980Z,98417.29
2017-12-06T18:46:17.647Z,98410.03
2017-12-06T18:48:45.318Z,98404.05
2017-12-06T18:51:13.046Z,98408.97
2017-12-06T18:53:40.677Z,98407.13
2017-12-06T18:56:08.299Z,98411.99
2017-12-06T18:58:35.947Z,98409.55
2017-12-06T19:01:03.665Z,98408.05
2017-12-06T19:03:31.310Z,98407.62
2017-12-06T19:05:59.917Z,98416.45
2017-12-06T19:08:27.608Z,98399.92
2017-12-06T19:10:55.342Z,98401.29
2017-12-06T19:13:23.062Z,98403.61
2017-12-06T19:15:50.769Z,98396.80
2017-12-06T19:18:18.465Z,98399.59
2017-12-06T19:20:46.189Z,98395.73
2017-12-06T19:23:15.275Z,98392.30
2017-12-06T19:25:43.086Z,98396.66
2017-12-06T19:28:10.861Z,98392.92
2017-12-06T19:30:38.650Z,98392.05
2017-12-06T19:33:06.698Z,98390.08
2017-12-06T19:35:34.604Z,98389.67
2017-12-06T19:38:02.490Z,98386.64
2017-12-06T19:40:30.304Z,98385.47
2017-12-06T19:42:58.169Z,98376.20
2017-12-06T19:45:26.153Z,98382.03
2017-12-06T19:47:54.599Z,98383.78
2017-12-06T19:50:22.374Z,98388.80
2017-12-06T19:52:50.302Z,98386.29
2017-12-06T19:55:18.214Z,98379.65
2017-12-06T19:57:45.984Z,98375.89
2017-12-06T20:00:13.763Z,98376.70
2017-12-06T20:02:41.546Z,98380.31
2017-12-06T20:05:09.437Z,98380.31
2017-12-06T20:07:37.307Z,98376.92
2017-12-06T20:10:05.085Z,98373.23
2017-12-06T20:12:34.538Z,98373.14
2017-12-06T20:15:02.343Z,98367.60
2017-12-06T20:17:30.137Z,98359.30
2017-12-06T20:19:57.932Z,98365.56
2017-12-06T20:22:25.705Z,98365.94
2017-12-06T20:24:53.598Z,98363.78
2017-12-06T20:27:22.330Z,98352.44
2017-12-06T20:30:00.287Z,98357.36
2017-12-06T20:32:30.050Z,98355.39
2017-12-06T20:34:57.971Z,98359.78
2017-12-06T20:37:28.001Z,98352.98
2017-12-06T20:39:56.958Z,98352.17
2017-12-06T20:42:26.607Z,98355.94
2017-12-06T20:44:54.475Z,98352.52
2017-12-06T20:47:23.017Z,98354.94
2017-12-06T20:49:51.590Z,98348.70
2017-12-06T20:52:19.349Z,98344.39
2017-12-06T20:54:47.133Z,98348.09
2017-12-06T20:57:14.916Z,98339.03
2017-12-06T20:59:42.781Z,98337.87
2017-12-06T21:02:10.540Z,98339.13
2017-12-06T21:04:38.311Z,98341.91
2017-12-06T21:07:06.033Z,98330.64
2017-12-06T21:09:33.791Z,98323.82
2017-12-06T21:12:01.521Z,98327.86
2017-12-06T21:14:29.233Z,98340.48
2017-12-06T21:16:56.973Z,98320.88
2017-12-06T21:19:25.731Z,98317.05
2017-12-06T21:21:53.459Z,98317.50
2017-12-06T21:24:21.158Z,98313.23
2017-12-06T21:26:49.160Z,98311.52
2017-12-06T21:29:16.876Z,98308.84
2017-12-06T21:31:44.536Z,98306.33
2017-12-06T21:34:12.235Z,98308.40
2017-12-06T21:36:39.942Z,98304.48
2017-12-06T21:39:07.598Z,98301.02
2017-12-06T21:41:35.304Z,98300.70
2017-12-06T21:44:02.969Z,98299.92
2017-12-06T21:46:30.588Z,98305.19
2017-12-06T21:48:58.286Z,98309.32
2017-12-06T21:51:25.940Z,98298.08
2017-12-06T21:53:53.518Z,98294.81
2017-12-06T21:56:21.171Z,98296.89
2017-12-06T21:58:48.778Z,98300.78
2017-12-06T22:01:16.436Z,98303.26
2017-12-06T22:03:44.028Z,98298.25
2017-12-06T22:06:11.681Z,98303.26
2017-12-06T22:08:39.298Z,98293.59
2017-12-06T22:11:06.941Z,98290.88
2017-12-06T22:13:34.592Z,98288.13
2017-12-06T22:16:02.217Z,98286.96
2017-12-06T22:18:29.839Z,98286.41
2017-12-06T22:20:57.450Z,98290.16
2017-12-06T22:23:25.055Z,98280.61
2017-12-06T22:25:52.669Z,98282.12
2017-12-06T22:28:20.312Z,98280.81
2017-12-06T22:30:47.985Z,98282.47
2017-12-06T22:33:15.563Z,98277.55
2017-12-06T22:35:43.279Z,98291.77
2017-12-06T22:38:10.868Z,98275.80
2017-12-06T22:40:38.447Z,98294.27
2017-12-06T22:43:06.087Z,98266.75
2017-12-06T22:45:33.730Z,98265.78
2017-12-06T22:48:01.346Z,98259.89
2017-12-06T22:50:28.975Z,98259.98
2017-12-06T22:52:56.598Z,98255.84
2017-12-06T22:55:25.099Z,98258.58
2017-12-06T22:57:52.709Z,98255.68
2017-12-06T23:00:20.291Z,98254.09
2017-12-06T23:02:47.894Z,98253.91
2017-12-06T23:05:15.580Z,98245.35
2017-12-06T23:07:43.206Z,98243.28
2017-12-06T23:10:10.827Z,98240.45
2017-12-06T23:12:38.498Z,98232.23
2017-12-06T23:15:06.088Z,98235.06
2017-12-06T23:17:33.735Z,98231.95
2017-12-06T23:20:01.440Z,98235.77
2017-12-06T23:22:29.078Z,98228.93
2017-12-06T23:24:56.686Z,98228.13
2017-12-06T23:27:24.288Z,98223.21
2017-12-06T23:29:52.052Z,98222.16
2017-12-06T23:32:19.697Z,98217.37
2017-12-06T23:34:47.289Z,98213.62
2017-12-06T23:37:14.938Z,98208.16
2017-12-06T23:39:42.511Z,98214.21
2017-12-06T23:42:10.089Z,98207.23
2017-12-06T23:44:37.720Z,98199.02
2017-12-06T23:47:05.327Z,98195.29
2017-12-06T23:49:32.953Z,98196.69
2017-12-06T23:52:00.591Z,98195.06
2017-12-06T23:54:28.199Z,98187.34
2017-12-06T23:56:55.846Z,98185.06
2017-12-06T23:59:23.490Z,98178.83
